sensor_id;sensor_type;location;lat;lon;timestamp;P1;durP1;ratioP1;P2;durP2;ratioP2
14799;SDS011;7491;57.750;11.970;2023-04-24T00:06:07;32.30;;;23.17;;
14799;SDS011;7491;57.750;11.970;2023-04-24T00:16:02;32.50;;;22.15;;
14799;SDS011;7491;57.750;11.970;2023-04-24T00:31:58;30.98;;;23.35;;
14799;SDS011;7491;57.750;11.970;2023-04-24T03:44:57;24.48;;;16.90;;
14799;SDS011;7491;57.750;11.970;2023-04-24T06:55:00;15.23;;;12.63;;
14799;SDS011;7491;57.750;11.970;2023-04-24T06:57:52;16.25;;;12.02;;
14799;SDS011;7491;57.750;11.970;2023-04-24T07:00:19;17.23;;;13.20;;
14799;SDS011;7491;57.750;11.970;2023-04-24T07:02:46;13.65;;;11.48;;
14799;SDS011;7491;57.750;11.970;2023-04-24T07:05:13;15.18;;;12.45;;
14799;SDS011;7491;57.750;11.970;2023-04-24T07:07:40;14.70;;;11.52;;
14799;SDS011;7491;57.750;11.970;2023-04-24T07:10:09;16.23;;;12.43;;
14799;SDS011;7491;57.750;11.970;2023-04-24T07:12:36;15.93;;;11.38;;
14799;SDS011;7491;57.750;11.970;2023-04-24T07:15:03;17.02;;;12.35;;
14799;SDS011;7491;57.750;11.970;2023-04-24T07:17:31;17.00;;;11.57;;
14799;SDS011;7491;57.750;11.970;2023-04-24T07:19:57;14.65;;;11.32;;
14799;SDS011;7491;57.750;11.970;2023-04-24T07:22:24;13.48;;;11.60;;
14799;SDS011;7491;57.750;11.970;2023-04-24T07:24:51;14.75;;;10.77;;
14799;SDS011;7491;57.750;11.970;2023-04-24T07:27:19;14.65;;;11.63;;
14799;SDS011;7491;57.750;11.970;2023-04-24T07:29:46;15.55;;;11.52;;
14799;SDS011;7491;57.750;11.970;2023-04-24T07:32:13;13.25;;;11.05;;
14799;SDS011;7491;57.750;11.970;2023-04-24T07:34:39;14.38;;;11.27;;
14799;SDS011;7491;57.750;11.970;2023-04-24T07:37:06;13.68;;;11.05;;
14799;SDS011;7491;57.750;11.970;2023-04-24T07:39:33;16.52;;;11.50;;
14799;SDS011;7491;57.750;11.970;2023-04-24T07:41:59;13.80;;;11.55;;
14799;SDS011;7491;57.750;11.970;2023-04-24T07:44:28;12.77;;;10.70;;
14799;SDS011;7491;57.750;11.970;2023-04-24T07:46:54;16.45;;;10.68;;
14799;SDS011;7491;57.750;11.970;2023-04-24T07:49:22;14.50;;;11.13;;
14799;SDS011;7491;57.750;11.970;2023-04-24T07:51:49;13.43;;;11.38;;
14799;SDS011;7491;57.750;11.970;2023-04-24T07:54:16;13.32;;;11.82;;
14799;SDS011;7491;57.750;11.970;2023-04-24T07:56:43;14.10;;;11.23;;
14799;SDS011;7491;57.750;11.970;2023-04-24T07:59:10;15.93;;;11.70;;
14799;SDS011;7491;57.750;11.970;2023-04-24T08:01:38;13.10;;;11.40;;
14799;SDS011;7491;57.750;11.970;2023-04-24T08:04:05;16.77;;;11.68;;
14799;SDS011;7491;57.750;11.970;2023-04-24T08:06:32;13.55;;;11.70;;
14799;SDS011;7491;57.750;11.970;2023-04-24T08:08:59;16.63;;;12.85;;
14799;SDS011;7491;57.750;11.970;2023-04-24T08:11:26;16.38;;;12.27;;
14799;SDS011;7491;57.750;11.970;2023-04-24T08:13:53;15.40;;;12.63;;
14799;SDS011;7491;57.750;11.970;2023-04-24T08:16:20;18.60;;;12.90;;
14799;SDS011;7491;57.750;11.970;2023-04-24T08:18:53;14.35;;;12.40;;
14799;SDS011;7491;57.750;11.970;2023-04-24T08:21:20;14.27;;;11.23;;
14799;SDS011;7491;57.750;11.970;2023-04-24T08:23:46;14.88;;;12.50;;
14799;SDS011;7491;57.750;11.970;2023-04-24T08:26:13;14.52;;;11.85;;
14799;SDS011;7491;57.750;11.970;2023-04-24T10:40:24;10.02;;;7.28;;
14799;SDS011;7491;57.750;11.970;2023-04-24T10:43:25;11.07;;;8.82;;
14799;SDS011;7491;57.750;11.970;2023-04-24T10:46:00;10.82;;;8.55;;
14799;SDS011;7491;57.750;11.970;2023-04-24T10:48:27;9.75;;;7.68;;
14799;SDS011;7491;57.750;11.970;2023-04-24T10:50:54;10.45;;;7.32;;
14799;SDS011;7491;57.750;11.970;2023-04-24T10:53:29;9.23;;;7.53;;
14799;SDS011;7491;57.750;11.970;2023-04-24T10:55:59;9.77;;;7.78;;
14799;SDS011;7491;57.750;11.970;2023-04-24T10:58:36;9.70;;;8.70;;
14799;SDS011;7491;57.750;11.970;2023-04-24T11:01:05;8.73;;;7.50;;
14799;SDS011;7491;57.750;11.970;2023-04-24T11:03:33;9.88;;;8.15;;
14799;SDS011;7491;57.750;11.970;2023-04-24T11:06:02;8.73;;;7.30;;
14799;SDS011;7491;57.750;11.970;2023-04-24T11:08:31;8.20;;;6.65;;
14799;SDS011;7491;57.750;11.970;2023-04-24T11:11:08;7.25;;;5.88;;
14799;SDS011;7491;57.750;11.970;2023-04-24T11:16:37;8.73;;;6.43;;
14799;SDS011;7491;57.750;11.970;2023-04-24T11:19:09;8.55;;;6.82;;
14799;SDS011;7491;57.750;11.970;2023-04-24T11:21:44;7.53;;;5.03;;
14799;SDS011;7491;57.750;11.970;2023-04-24T11:24:21;8.95;;;6.55;;
14799;SDS011;7491;57.750;11.970;2023-04-24T11:26:52;6.93;;;6.22;;
14799;SDS011;7491;57.750;11.970;2023-04-24T11:29:20;7.45;;;6.30;;
14799;SDS011;7491;57.750;11.970;2023-04-24T11:31:47;7.22;;;5.68;;
14799;SDS011;7491;57.750;11.970;2023-04-24T11:34:16;6.88;;;6.15;;
14799;SDS011;7491;57.750;11.970;2023-04-24T11:36:44;7.35;;;6.63;;
14799;SDS011;7491;57.750;11.970;2023-04-24T11:39:14;7.10;;;5.97;;
14799;SDS011;7491;57.750;11.970;2023-04-24T11:41:41;7.28;;;6.57;;
14799;SDS011;7491;57.750;11.970;2023-04-24T11:44:09;6.15;;;5.55;;
14799;SDS011;7491;57.750;11.970;2023-04-24T11:46:39;8.40;;;6.30;;
14799;SDS011;7491;57.750;11.970;2023-04-24T11:49:05;8.00;;;5.25;;
14799;SDS011;7491;57.750;11.970;2023-04-24T11:51:32;5.25;;;4.63;;
14799;SDS011;7491;57.750;11.970;2023-04-24T11:54:00;6.00;;;5.40;;
14799;SDS011;7491;57.750;11.970;2023-04-24T11:56:28;6.15;;;5.55;;
14799;SDS011;7491;57.750;11.970;2023-04-24T11:58:54;7.18;;;5.90;;
14799;SDS011;7491;57.750;11.970;2023-04-24T12:01:23;5.40;;;4.88;;
14799;SDS011;7491;57.750;11.970;2023-04-24T12:03:49;4.70;;;4.30;;
14799;SDS011;7491;57.750;11.970;2023-04-24T12:06:17;5.45;;;4.95;;
14799;SDS011;7491;57.750;11.970;2023-04-24T12:08:47;6.50;;;4.38;;
14799;SDS011;7491;57.750;11.970;2023-04-24T12:11:14;5.07;;;4.57;;
14799;SDS011;7491;57.750;11.970;2023-04-24T12:13:43;6.20;;;5.60;;
14799;SDS011;7491;57.750;11.970;2023-04-24T12:16:10;6.40;;;4.85;;
14799;SDS011;7491;57.750;11.970;2023-04-24T12:18:42;6.07;;;4.68;;
14799;SDS011;7491;57.750;11.970;2023-04-24T12:21:17;4.50;;;4.10;;
14799;SDS011;7491;57.750;11.970;2023-04-24T12:23:44;6.57;;;4.32;;
14799;SDS011;7491;57.750;11.970;2023-04-24T12:26:15;5.53;;;4.28;;
14799;SDS011;7491;57.750;11.970;2023-04-24T12:28:45;4.18;;;3.78;;
14799;SDS011;7491;57.750;11.970;2023-04-24T12:31:13;6.85;;;4.65;;
14799;SDS011;7491;57.750;11.970;2023-04-24T12:33:40;4.15;;;3.75;;
14799;SDS011;7491;57.750;11.970;2023-04-24T12:36:10;4.22;;;3.83;;
14799;SDS011;7491;57.750;11.970;2023-04-24T12:38:38;6.35;;;4.03;;
14799;SDS011;7491;57.750;11.970;2023-04-24T12:41:07;4.10;;;3.70;;
14799;SDS011;7491;57.750;11.970;2023-04-24T12:43:36;4.25;;;3.90;;
14799;SDS011;7491;57.750;11.970;2023-04-24T12:46:03;3.58;;;3.25;;
14799;SDS011;7491;57.750;11.970;2023-04-24T12:48:31;3.88;;;3.42;;
14799;SDS011;7491;57.750;11.970;2023-04-24T12:50:57;4.85;;;3.70;;
14799;SDS011;7491;57.750;11.970;2023-04-24T12:53:28;3.25;;;2.97;;
14799;SDS011;7491;57.750;11.970;2023-04-24T12:55:56;4.00;;;3.58;;
14799;SDS011;7491;57.750;11.970;2023-04-24T12:58:23;3.90;;;3.50;;
14799;SDS011;7491;57.750;11.970;2023-04-24T13:00:50;3.97;;;3.38;;
14799;SDS011;7491;57.750;11.970;2023-04-24T13:03:16;4.03;;;3.53;;
14799;SDS011;7491;57.750;11.970;2023-04-24T13:05:44;3.97;;;3.15;;
14799;SDS011;7491;57.750;11.970;2023-04-24T13:08:10;3.63;;;3.25;;
14799;SDS011;7491;57.750;11.970;2023-04-24T13:10:39;4.63;;;3.10;;
14799;SDS011;7491;57.750;11.970;2023-04-24T13:13:06;4.72;;;3.78;;
14799;SDS011;7491;57.750;11.970;2023-04-24T13:15:33;3.63;;;3.30;;
14799;SDS011;7491;57.750;11.970;2023-04-24T13:18:00;4.88;;;3.40;;
14799;SDS011;7491;57.750;11.970;2023-04-24T13:20:27;6.53;;;3.50;;
14799;SDS011;7491;57.750;11.970;2023-04-24T13:22:54;5.15;;;3.50;;
14799;SDS011;7491;57.750;11.970;2023-04-24T13:25:20;4.70;;;3.65;;
14799;SDS011;7491;57.750;11.970;2023-04-24T13:27:49;4.90;;;3.92;;
14799;SDS011;7491;57.750;11.970;2023-04-24T13:30:16;4.18;;;3.33;;
14799;SDS011;7491;57.750;11.970;2023-04-24T13:32:43;4.32;;;3.47;;
14799;SDS011;7491;57.750;11.970;2023-04-24T13:35:10;5.57;;;3.22;;
14799;SDS011;7491;57.750;11.970;2023-04-24T13:37:37;4.07;;;3.55;;
14799;SDS011;7491;57.750;11.970;2023-04-24T13:40:04;7.63;;;3.22;;
14799;SDS011;7491;57.750;11.970;2023-04-24T13:42:32;3.55;;;3.17;;
14799;SDS011;7491;57.750;11.970;2023-04-24T13:45:00;5.15;;;3.47;;
14799;SDS011;7491;57.750;11.970;2023-04-24T13:47:28;4.18;;;3.50;;
14799;SDS011;7491;57.750;11.970;2023-04-24T13:49:55;5.38;;;3.30;;
14799;SDS011;7491;57.750;11.970;2023-04-24T13:52:21;3.42;;;3.13;;
14799;SDS011;7491;57.750;11.970;2023-04-24T13:54:48;3.53;;;3.22;;
14799;SDS011;7491;57.750;11.970;2023-04-24T13:57:30;3.20;;;2.90;;
14799;SDS011;7491;57.750;11.970;2023-04-24T14:00:24;4.25;;;2.90;;
14799;SDS011;7491;57.750;11.970;2023-04-24T14:02:51;4.17;;;3.47;;
14799;SDS011;7491;57.750;11.970;2023-04-24T14:05:17;3.83;;;3.00;;
14799;SDS011;7491;57.750;11.970;2023-04-24T14:07:50;3.75;;;3.22;;
14799;SDS011;7491;57.750;11.970;2023-04-24T14:10:37;3.60;;;3.30;;
14799;SDS011;7491;57.750;11.970;2023-04-24T14:13:23;3.47;;;3.17;;
14799;SDS011;7491;57.750;11.970;2023-04-24T14:15:52;3.78;;;3.15;;
14799;SDS011;7491;57.750;11.970;2023-04-24T14:18:19;3.70;;;3.40;;
14799;SDS011;7491;57.750;11.970;2023-04-24T14:20:45;7.43;;;6.70;;
14799;SDS011;7491;57.750;11.970;2023-04-24T14:23:12;7.30;;;3.85;;
14799;SDS011;7491;57.750;11.970;2023-04-24T14:25:39;5.97;;;4.07;;
14799;SDS011;7491;57.750;11.970;2023-04-24T14:28:05;6.05;;;4.95;;
14799;SDS011;7491;57.750;11.970;2023-04-24T14:30:32;5.75;;;5.25;;
14799;SDS011;7491;57.750;11.970;2023-04-24T14:33:00;6.90;;;5.47;;
14799;SDS011;7491;57.750;11.970;2023-04-24T14:35:27;8.43;;;6.68;;
14799;SDS011;7491;57.750;11.970;2023-04-24T14:37:58;7.63;;;5.43;;
14799;SDS011;7491;57.750;11.970;2023-04-24T14:40:25;6.35;;;5.70;;
14799;SDS011;7491;57.750;11.970;2023-04-24T14:42:51;6.85;;;6.18;;
14799;SDS011;7491;57.750;11.970;2023-04-24T14:45:18;9.55;;;5.63;;
14799;SDS011;7491;57.750;11.970;2023-04-24T14:47:45;8.07;;;6.38;;
14799;SDS011;7491;57.750;11.970;2023-04-24T14:50:13;8.43;;;7.55;;
14799;SDS011;7491;57.750;11.970;2023-04-24T14:52:40;10.23;;;6.03;;
14799;SDS011;7491;57.750;11.970;2023-04-24T14:55:07;6.88;;;5.90;;
14799;SDS011;7491;57.750;11.970;2023-04-24T14:57:36;7.72;;;6.20;;
14799;SDS011;7491;57.750;11.970;2023-04-24T15:00:03;8.05;;;6.40;;
14799;SDS011;7491;57.750;11.970;2023-04-24T15:02:33;11.68;;;6.93;;
14799;SDS011;7491;57.750;11.970;2023-04-24T15:05:02;6.93;;;6.30;;
14799;SDS011;7491;57.750;11.970;2023-04-24T15:07:31;7.35;;;5.82;;
14799;SDS011;7491;57.750;11.970;2023-04-24T15:09:58;9.43;;;5.97;;
14799;SDS011;7491;57.750;11.970;2023-04-24T15:12:24;7.57;;;6.82;;
14799;SDS011;7491;57.750;11.970;2023-04-24T15:14:57;6.32;;;5.70;;
14799;SDS011;7491;57.750;11.970;2023-04-24T15:17:27;7.22;;;6.10;;
14799;SDS011;7491;57.750;11.970;2023-04-24T15:19:59;13.13;;;8.65;;
14799;SDS011;7491;57.750;11.970;2023-04-24T15:22:27;11.40;;;8.82;;
14799;SDS011;7491;57.750;11.970;2023-04-24T15:24:56;6.70;;;6.00;;
14799;SDS011;7491;57.750;11.970;2023-04-24T15:27:22;7.85;;;6.80;;
14799;SDS011;7491;57.750;11.970;2023-04-24T15:29:49;6.85;;;5.75;;
14799;SDS011;7491;57.750;11.970;2023-04-24T15:32:35;13.77;;;9.48;;
14799;SDS011;7491;57.750;11.970;2023-04-24T15:35:01;18.50;;;11.25;;
14799;SDS011;7491;57.750;11.970;2023-04-24T15:37:31;7.03;;;6.32;;
14799;SDS011;7491;57.750;11.970;2023-04-24T15:40:09;9.90;;;7.55;;
14799;SDS011;7491;57.750;11.970;2023-04-24T15:42:38;7.97;;;6.30;;
14799;SDS011;7491;57.750;11.970;2023-04-24T15:45:07;6.68;;;5.97;;
14799;SDS011;7491;57.750;11.970;2023-04-24T15:47:37;8.85;;;6.53;;
14799;SDS011;7491;57.750;11.970;2023-04-24T15:50:05;7.60;;;6.43;;
14799;SDS011;7491;57.750;11.970;2023-04-24T15:52:34;8.40;;;6.43;;
14799;SDS011;7491;57.750;11.970;2023-04-24T15:55:02;7.25;;;5.97;;
14799;SDS011;7491;57.750;11.970;2023-04-24T15:57:32;6.35;;;5.75;;
14799;SDS011;7491;57.750;11.970;2023-04-24T16:00:04;9.75;;;6.25;;
14799;SDS011;7491;57.750;11.970;2023-04-24T16:02:41;6.35;;;5.45;;
14799;SDS011;7491;57.750;11.970;2023-04-24T16:05:08;7.72;;;6.40;;
14799;SDS011;7491;57.750;11.970;2023-04-24T16:07:38;5.72;;;5.20;;
14799;SDS011;7491;57.750;11.970;2023-04-24T16:10:16;7.80;;;5.80;;
14799;SDS011;7491;57.750;11.970;2023-04-24T16:13:10;6.75;;;5.68;;
14799;SDS011;7491;57.750;11.970;2023-04-24T16:15:39;6.57;;;5.38;;
14799;SDS011;7491;57.750;11.970;2023-04-24T16:18:06;6.55;;;5.95;;
14799;SDS011;7491;57.750;11.970;2023-04-24T16:20:33;6.65;;;5.88;;
14799;SDS011;7491;57.750;11.970;2023-04-24T16:23:02;7.78;;;5.68;;
14799;SDS011;7491;57.750;11.970;2023-04-24T16:25:32;6.63;;;5.97;;
14799;SDS011;7491;57.750;11.970;2023-04-24T16:28:02;7.28;;;6.35;;
14799;SDS011;7491;57.750;11.970;2023-04-24T16:30:32;6.97;;;6.25;;
14799;SDS011;7491;57.750;11.970;2023-04-24T16:33:36;6.43;;;5.53;;
14799;SDS011;7491;57.750;11.970;2023-04-24T16:36:11;7.30;;;5.75;;
14799;SDS011;7491;57.750;11.970;2023-04-24T16:38:39;6.40;;;5.10;;
14799;SDS011;7491;57.750;11.970;2023-04-24T16:41:06;6.65;;;5.75;;
14799;SDS011;7491;57.750;11.970;2023-04-24T16:43:33;7.00;;;5.47;;
14799;SDS011;7491;57.750;11.970;2023-04-24T16:46:01;7.65;;;5.20;;
14799;SDS011;7491;57.750;11.970;2023-04-24T16:48:31;9.63;;;7.05;;
14799;SDS011;7491;57.750;11.970;2023-04-24T16:51:00;7.85;;;6.97;;
14799;SDS011;7491;57.750;11.970;2023-04-24T16:53:27;6.03;;;5.43;;
14799;SDS011;7491;57.750;11.970;2023-04-24T16:55:57;7.00;;;5.78;;
14799;SDS011;7491;57.750;11.970;2023-04-24T16:58:26;49.70;;;25.60;;
14799;SDS011;7491;57.750;11.970;2023-04-24T17:00:53;32.20;;;17.63;;
14799;SDS011;7491;57.750;11.970;2023-04-24T17:03:21;6.68;;;6.07;;
14799;SDS011;7491;57.750;11.970;2023-04-24T17:05:49;13.52;;;8.82;;
14799;SDS011;7491;57.750;11.970;2023-04-24T17:08:16;6.90;;;6.15;;
14799;SDS011;7491;57.750;11.970;2023-04-24T17:10:43;7.88;;;6.45;;
14799;SDS011;7491;57.750;11.970;2023-04-24T17:13:10;10.63;;;8.13;;
14799;SDS011;7491;57.750;11.970;2023-04-24T17:15:38;9.02;;;6.20;;
14799;SDS011;7491;57.750;11.970;2023-04-24T17:18:05;6.15;;;5.55;;
14799;SDS011;7491;57.750;11.970;2023-04-24T17:20:33;8.30;;;6.63;;
14799;SDS011;7491;57.750;11.970;2023-04-24T17:23:02;8.85;;;7.65;;
14799;SDS011;7491;57.750;11.970;2023-04-24T17:25:28;6.75;;;6.05;;
14799;SDS011;7491;57.750;11.970;2023-04-24T17:27:58;7.05;;;5.95;;
14799;SDS011;7491;57.750;11.970;2023-04-24T17:30:25;7.32;;;6.63;;
14799;SDS011;7491;57.750;11.970;2023-04-24T17:32:55;6.35;;;5.45;;
14799;SDS011;7491;57.750;11.970;2023-04-24T17:35:28;5.72;;;5.22;;
14799;SDS011;7491;57.750;11.970;2023-04-24T17:37:57;6.72;;;5.63;;
14799;SDS011;7491;57.750;11.970;2023-04-24T17:40:24;6.40;;;5.80;;
14799;SDS011;7491;57.750;11.970;2023-04-24T17:42:50;7.45;;;5.82;;
14799;SDS011;7491;57.750;11.970;2023-04-24T17:45:18;8.48;;;6.18;;
14799;SDS011;7491;57.750;11.970;2023-04-24T17:47:45;6.82;;;6.13;;
14799;SDS011;7491;57.750;11.970;2023-04-24T17:53:21;6.93;;;6.22;;
14799;SDS011;7491;57.750;11.970;2023-04-24T17:55:49;6.60;;;5.90;;
14799;SDS011;7491;57.750;11.970;2023-04-24T17:58:28;9.32;;;6.40;;
14799;SDS011;7491;57.750;11.970;2023-04-24T18:00:59;7.60;;;5.82;;
14799;SDS011;7491;57.750;11.970;2023-04-24T18:03:42;6.85;;;6.00;;
14799;SDS011;7491;57.750;11.970;2023-04-24T18:06:16;7.25;;;6.22;;
14799;SDS011;7491;57.750;11.970;2023-04-24T18:08:44;8.18;;;6.43;;
14799;SDS011;7491;57.750;11.970;2023-04-24T18:11:13;8.90;;;7.40;;
14799;SDS011;7491;57.750;11.970;2023-04-24T18:13:48;7.93;;;6.68;;
14799;SDS011;7491;57.750;11.970;2023-04-24T18:16:24;9.15;;;6.95;;
14799;SDS011;7491;57.750;11.970;2023-04-24T18:18:53;7.07;;;6.18;;
14799;SDS011;7491;57.750;11.970;2023-04-24T18:21:23;9.48;;;7.75;;
14799;SDS011;7491;57.750;11.970;2023-04-24T18:24:01;9.25;;;7.50;;
14799;SDS011;7491;57.750;11.970;2023-04-24T18:26:33;11.93;;;8.65;;
14799;SDS011;7491;57.750;11.970;2023-04-24T18:29:05;8.80;;;7.88;;
14799;SDS011;7491;57.750;11.970;2023-04-24T18:31:31;8.93;;;8.02;;
14799;SDS011;7491;57.750;11.970;2023-04-24T18:33:58;9.55;;;8.00;;
14799;SDS011;7491;57.750;11.970;2023-04-24T18:36:25;7.25;;;6.55;;
14799;SDS011;7491;57.750;11.970;2023-04-24T18:38:52;8.30;;;6.72;;
14799;SDS011;7491;57.750;11.970;2023-04-24T18:41:20;7.20;;;6.25;;
14799;SDS011;7491;57.750;11.970;2023-04-24T18:43:46;7.50;;;6.57;;
14799;SDS011;7491;57.750;11.970;2023-04-24T18:46:16;6.25;;;5.65;;
14799;SDS011;7491;57.750;11.970;2023-04-24T18:48:42;7.82;;;6.78;;
14799;SDS011;7491;57.750;11.970;2023-04-24T18:51:10;6.97;;;6.28;;
14799;SDS011;7491;57.750;11.970;2023-04-24T18:53:41;7.70;;;6.25;;
14799;SDS011;7491;57.750;11.970;2023-04-24T18:56:10;7.78;;;6.68;;
14799;SDS011;7491;57.750;11.970;2023-04-24T18:58:38;10.05;;;6.40;;
14799;SDS011;7491;57.750;11.970;2023-04-24T19:01:10;8.05;;;6.03;;
14799;SDS011;7491;57.750;11.970;2023-04-24T19:03:37;8.63;;;6.30;;
14799;SDS011;7491;57.750;11.970;2023-04-24T19:06:03;9.95;;;8.00;;
14799;SDS011;7491;57.750;11.970;2023-04-24T19:08:30;10.43;;;8.40;;
14799;SDS011;7491;57.750;11.970;2023-04-24T19:10:57;7.93;;;5.95;;
14799;SDS011;7491;57.750;11.970;2023-04-24T19:13:27;7.90;;;6.90;;
14799;SDS011;7491;57.750;11.970;2023-04-24T19:15:55;7.72;;;6.90;;
14799;SDS011;7491;57.750;11.970;2023-04-24T19:18:21;7.25;;;6.28;;
14799;SDS011;7491;57.750;11.970;2023-04-24T19:20:50;7.50;;;6.60;;
14799;SDS011;7491;57.750;11.970;2023-04-24T19:23:17;6.75;;;6.15;;
14799;SDS011;7491;57.750;11.970;2023-04-24T19:25:43;8.02;;;7.22;;
14799;SDS011;7491;57.750;11.970;2023-04-24T19:28:10;8.35;;;7.53;;
14799;SDS011;7491;57.750;11.970;2023-04-24T19:30:37;7.57;;;6.10;;
14799;SDS011;7491;57.750;11.970;2023-04-24T19:33:06;7.05;;;6.20;;
14799;SDS011;7491;57.750;11.970;2023-04-24T19:35:32;7.53;;;6.72;;
14799;SDS011;7491;57.750;11.970;2023-04-24T19:38:00;9.73;;;6.72;;
14799;SDS011;7491;57.750;11.970;2023-04-24T19:40:26;8.38;;;7.18;;
14799;SDS011;7491;57.750;11.970;2023-04-24T19:42:53;7.80;;;6.97;;
14799;SDS011;7491;57.750;11.970;2023-04-24T19:45:20;10.25;;;7.20;;
14799;SDS011;7491;57.750;11.970;2023-04-24T19:47:47;7.30;;;6.60;;
14799;SDS011;7491;57.750;11.970;2023-04-24T19:50:15;7.80;;;7.03;;
14799;SDS011;7491;57.750;11.970;2023-04-24T19:52:42;10.13;;;7.07;;
14799;SDS011;7491;57.750;11.970;2023-04-24T19:55:09;7.68;;;6.88;;
14799;SDS011;7491;57.750;11.970;2023-04-24T19:57:35;12.32;;;10.88;;
14799;SDS011;7491;57.750;11.970;2023-04-24T20:00:02;11.70;;;9.07;;
14799;SDS011;7491;57.750;11.970;2023-04-24T20:02:29;9.32;;;7.47;;
14799;SDS011;7491;57.750;11.970;2023-04-24T20:04:56;9.18;;;6.68;;
14799;SDS011;7491;57.750;11.970;2023-04-24T20:07:24;7.40;;;6.70;;
14799;SDS011;7491;57.750;11.970;2023-04-24T20:09:51;8.20;;;6.47;;
14799;SDS011;7491;57.750;11.970;2023-04-24T20:12:17;6.75;;;6.05;;
14799;SDS011;7491;57.750;11.970;2023-04-24T20:14:45;7.45;;;6.78;;
14799;SDS011;7491;57.750;11.970;2023-04-24T20:17:12;8.30;;;6.88;;
14799;SDS011;7491;57.750;11.970;2023-04-24T20:19:39;7.93;;;6.07;;
14799;SDS011;7491;57.750;11.970;2023-04-24T20:22:05;7.30;;;6.53;;
14799;SDS011;7491;57.750;11.970;2023-04-24T20:24:34;7.80;;;6.30;;
14799;SDS011;7491;57.750;11.970;2023-04-24T20:27:01;9.27;;;7.35;;
14799;SDS011;7491;57.750;11.970;2023-04-24T20:29:28;7.97;;;7.18;;
14799;SDS011;7491;57.750;11.970;2023-04-24T20:31:55;9.10;;;7.40;;
14799;SDS011;7491;57.750;11.970;2023-04-24T20:34:22;9.77;;;7.85;;
14799;SDS011;7491;57.750;11.970;2023-04-24T20:36:49;10.05;;;7.82;;
14799;SDS011;7491;57.750;11.970;2023-04-24T20:39:15;8.32;;;7.53;;
14799;SDS011;7491;57.750;11.970;2023-04-24T20:41:44;10.18;;;9.10;;
14799;SDS011;7491;57.750;11.970;2023-04-24T20:44:11;8.55;;;7.72;;
14799;SDS011;7491;57.750;11.970;2023-04-24T20:46:38;8.70;;;7.05;;
14799;SDS011;7491;57.750;11.970;2023-04-24T20:49:05;10.05;;;8.18;;
14799;SDS011;7491;57.750;11.970;2023-04-24T20:51:32;10.55;;;8.40;;
14799;SDS011;7491;57.750;11.970;2023-04-24T20:53:58;8.55;;;7.72;;
14799;SDS011;7491;57.750;11.970;2023-04-24T20:56:25;8.73;;;7.90;;
14799;SDS011;7491;57.750;11.970;2023-04-24T20:58:53;9.77;;;8.00;;
14799;SDS011;7491;57.750;11.970;2023-04-24T21:01:20;8.73;;;7.75;;
14799;SDS011;7491;57.750;11.970;2023-04-24T21:03:47;9.07;;;8.18;;
14799;SDS011;7491;57.750;11.970;2023-04-24T21:06:13;11.27;;;8.05;;
14799;SDS011;7491;57.750;11.970;2023-04-24T21:08:41;8.88;;;7.97;;
14799;SDS011;7491;57.750;11.970;2023-04-24T21:11:07;12.25;;;10.40;;
14799;SDS011;7491;57.750;11.970;2023-04-24T21:13:34;8.73;;;7.88;;
14799;SDS011;7491;57.750;11.970;2023-04-24T21:16:02;13.25;;;11.13;;
14799;SDS011;7491;57.750;11.970;2023-04-24T21:18:29;10.93;;;8.63;;
14799;SDS011;7491;57.750;11.970;2023-04-24T21:20:56;9.07;;;8.02;;
14799;SDS011;7491;57.750;11.970;2023-04-24T21:23:22;9.13;;;7.55;;
14799;SDS011;7491;57.750;11.970;2023-04-24T21:25:49;8.38;;;6.95;;
14799;SDS011;7491;57.750;11.970;2023-04-24T21:28:16;9.00;;;7.13;;
14799;SDS011;7491;57.750;11.970;2023-04-24T21:30:44;7.50;;;6.57;;
14799;SDS011;7491;57.750;11.970;2023-04-24T21:33:12;7.72;;;6.80;;
14799;SDS011;7491;57.750;11.970;2023-04-24T21:35:38;6.95;;;6.25;;
14799;SDS011;7491;57.750;11.970;2023-04-24T21:38:05;7.45;;;6.40;;
14799;SDS011;7491;57.750;11.970;2023-04-24T21:40:32;7.25;;;6.55;;
14799;SDS011;7491;57.750;11.970;2023-04-24T21:42:59;7.50;;;6.80;;
14799;SDS011;7491;57.750;11.970;2023-04-24T21:45:26;8.55;;;6.97;;
14799;SDS011;7491;57.750;11.970;2023-04-24T21:47:52;7.90;;;6.85;;
14799;SDS011;7491;57.750;11.970;2023-04-24T21:50:20;9.27;;;7.90;;
14799;SDS011;7491;57.750;11.970;2023-04-24T21:52:47;7.13;;;6.53;;
14799;SDS011;7491;57.750;11.970;2023-04-24T21:55:14;6.78;;;6.15;;
14799;SDS011;7491;57.750;11.970;2023-04-24T21:57:41;6.13;;;5.45;;
14799;SDS011;7491;57.750;11.970;2023-04-24T22:00:08;5.75;;;5.13;;
14799;SDS011;7491;57.750;11.970;2023-04-24T22:02:35;5.82;;;5.05;;
14799;SDS011;7491;57.750;11.970;2023-04-24T22:05:02;6.90;;;6.18;;
14799;SDS011;7491;57.750;11.970;2023-04-24T22:07:31;7.18;;;5.45;;
14799;SDS011;7491;57.750;11.970;2023-04-24T22:10:00;7.53;;;5.07;;
14799;SDS011;7491;57.750;11.970;2023-04-24T22:12:28;5.80;;;5.30;;
14799;SDS011;7491;57.750;11.970;2023-04-24T22:14:56;5.03;;;4.63;;
14799;SDS011;7491;57.750;11.970;2023-04-24T22:17:23;7.32;;;4.18;;
14799;SDS011;7491;57.750;11.970;2023-04-24T22:19:49;5.30;;;4.55;;
14799;SDS011;7491;57.750;11.970;2023-04-24T22:22:16;4.57;;;4.15;;
14799;SDS011;7491;57.750;11.970;2023-04-24T22:24:44;4.93;;;4.50;;
14799;SDS011;7491;57.750;11.970;2023-04-24T22:27:11;5.70;;;4.55;;
14799;SDS011;7491;57.750;11.970;2023-04-24T22:29:37;4.40;;;4.00;;
14799;SDS011;7491;57.750;11.970;2023-04-24T22:32:04;5.13;;;4.47;;
14799;SDS011;7491;57.750;11.970;2023-04-24T22:34:31;4.50;;;4.10;;
14799;SDS011;7491;57.750;11.970;2023-04-24T22:36:58;5.22;;;4.72;;
14799;SDS011;7491;57.750;11.970;2023-04-24T22:39:24;5.20;;;4.40;;
14799;SDS011;7491;57.750;11.970;2023-04-24T22:41:53;5.38;;;4.32;;
14799;SDS011;7491;57.750;11.970;2023-04-24T22:44:21;6.82;;;4.30;;
14799;SDS011;7491;57.750;11.970;2023-04-24T22:46:48;6.38;;;4.20;;
14799;SDS011;7491;57.750;11.970;2023-04-24T22:49:15;4.88;;;3.92;;
14799;SDS011;7491;57.750;11.970;2023-04-24T22:51:42;6.43;;;4.18;;
14799;SDS011;7491;57.750;11.970;2023-04-24T22:54:09;5.22;;;4.43;;
14799;SDS011;7491;57.750;11.970;2023-04-24T22:56:36;5.55;;;4.65;;
14799;SDS011;7491;57.750;11.970;2023-04-24T22:59:05;5.82;;;4.05;;
14799;SDS011;7491;57.750;11.970;2023-04-24T23:01:31;6.20;;;4.43;;
14799;SDS011;7491;57.750;11.970;2023-04-24T23:03:58;5.15;;;4.65;;
14799;SDS011;7491;57.750;11.970;2023-04-24T23:06:25;5.32;;;4.40;;
14799;SDS011;7491;57.750;11.970;2023-04-24T23:08:52;5.20;;;4.70;;
14799;SDS011;7491;57.750;11.970;2023-04-24T23:11:18;4.50;;;4.10;;
14799;SDS011;7491;57.750;11.970;2023-04-24T23:13:46;4.88;;;4.47;;
14799;SDS011;7491;57.750;11.970;2023-04-24T23:16:14;5.30;;;4.20;;
14799;SDS011;7491;57.750;11.970;2023-04-24T23:18:41;5.10;;;4.47;;
14799;SDS011;7491;57.750;11.970;2023-04-24T23:21:07;5.05;;;4.55;;
14799;SDS011;7491;57.750;11.970;2023-04-24T23:23:34;5.20;;;4.75;;
14799;SDS011;7491;57.750;11.970;2023-04-24T23:26:01;5.63;;;4.88;;
14799;SDS011;7491;57.750;11.970;2023-04-24T23:28:28;5.55;;;4.72;;
14799;SDS011;7491;57.750;11.970;2023-04-24T23:30:55;6.10;;;5.20;;
14799;SDS011;7491;57.750;11.970;2023-04-24T23:33:23;6.57;;;5.88;;
14799;SDS011;7491;57.750;11.970;2023-04-24T23:35:50;7.40;;;5.90;;
14799;SDS011;7491;57.750;11.970;2023-04-24T23:38:17;6.78;;;6.07;;
14799;SDS011;7491;57.750;11.970;2023-04-24T23:40:45;7.47;;;6.78;;
14799;SDS011;7491;57.750;11.970;2023-04-24T23:43:12;8.68;;;7.78;;
14799;SDS011;7491;57.750;11.970;2023-04-24T23:45:39;8.80;;;7.80;;
14799;SDS011;7491;57.750;11.970;2023-04-24T23:48:06;11.05;;;8.13;;
14799;SDS011;7491;57.750;11.970;2023-04-24T23:50:34;8.48;;;7.57;;
14799;SDS011;7491;57.750;11.970;2023-04-24T23:53:01;8.45;;;7.60;;